sensor_id;sensor_type;location;lat;lon;timestamp;pressure;altitude;pressure_sealevel;temperature;humidity
29239;BME280;16267;48.194;11.546;2023-02-18T00:02:02;96825.72;;;11.52;77.98
29239;BME280;16267;48.194;11.546;2023-02-18T00:04:34;96824.97;;;11.59;76.51
29239;BME280;16267;48.194;11.546;2023-02-18T00:07:03;96832.25;;;11.41;77.95
29239;BME280;16267;48.194;11.546;2023-02-18T00:09:37;96833.81;;;11.45;77.41
29239;BME280;16267;48.194;11.546;2023-02-18T00:12:03;96822.28;;;11.37;78.00
29239;BME280;16267;48.194;11.546;2023-02-18T00:14:50;96818.44;;;11.42;77.84
29239;BME280;16267;48.194;11.546;2023-02-18T00:17:17;96808.47;;;11.39;77.95
29239;BME280;16267;48.194;11.546;2023-02-18T00:19:42;96821.91;;;11.43;77.77
29239;BME280;16267;48.194;11.546;2023-02-18T00:22:08;96819.22;;;11.28;78.67
29239;BME280;16267;48.194;11.546;2023-02-18T00:24:34;96811.91;;;11.39;78.42
29239;BME280;16267;48.194;11.546;2023-02-18T00:27:00;96798.47;;;11.39;78.12
29239;BME280;16267;48.194;11.546;2023-02-18T00:29:41;96794.25;;;11.31;79.00
29239;BME280;16267;48.194;11.546;2023-02-18T00:32:07;96796.19;;;11.20;79.48
29239;BME280;16267;48.194;11.546;2023-02-18T00:34:32;96804.25;;;11.31;79.02
29239;BME280;16267;48.194;11.546;2023-02-18T00:36:58;96806.91;;;11.34;79.19
29239;BME280;16267;48.194;11.546;2023-02-18T00:39:24;96798.09;;;11.34;79.18
29239;BME280;16267;48.194;11.546;2023-02-18T00:41:50;96809.22;;;11.22;79.72
29239;BME280;16267;48.194;11.546;2023-02-18T00:44:15;96805.38;;;11.37;79.16
29239;BME280;16267;48.194;11.546;2023-02-18T00:46:44;96803.84;;;11.36;79.19
29239;BME280;16267;48.194;11.546;2023-02-18T00:49:13;96801.53;;;11.24;80.01
29239;BME280;16267;48.194;11.546;2023-02-18T00:52:07;96798.47;;;11.29;80.28
29239;BME280;16267;48.194;11.546;2023-02-18T00:54:36;96801.91;;;11.33;80.00
29239;BME280;16267;48.194;11.546;2023-02-18T00:57:02;96810.00;;;11.40;79.26
29239;BME280;16267;48.194;11.546;2023-02-18T00:59:27;96799.59;;;11.49;79.22
29239;BME280;16267;48.194;11.546;2023-02-18T01:01:59;96804.97;;;11.56;78.29
29239;BME280;16267;48.194;11.546;2023-02-18T01:04:31;96807.69;;;11.56;78.51
29239;BME280;16267;48.194;11.546;2023-02-18T01:06:57;96803.47;;;11.48;78.54
29239;BME280;16267;48.194;11.546;2023-02-18T01:09:47;96808.84;;;11.48;78.44
29239;BME280;16267;48.194;11.546;2023-02-18T01:16:06;96801.53;;;11.56;78.23
29239;BME280;16267;48.194;11.546;2023-02-18T01:26:55;96796.91;;;11.64;77.88
29239;BME280;16267;48.194;11.546;2023-02-18T01:29:21;96798.81;;;11.52;78.08
29239;BME280;16267;48.194;11.546;2023-02-18T01:36:41;96780.78;;;11.60;77.60
29239;BME280;16267;48.194;11.546;2023-02-18T01:39:07;96787.31;;;11.52;78.01
29239;BME280;16267;48.194;11.546;2023-02-18T01:41:33;96791.94;;;11.51;78.31
29239;BME280;16267;48.194;11.546;2023-02-18T01:44:23;96786.53;;;11.55;78.05
29239;BME280;16267;48.194;11.546;2023-02-18T01:46:50;96781.19;;;11.51;78.18
29239;BME280;16267;48.194;11.546;2023-02-18T01:49:24;96777.34;;;11.56;78.05
29239;BME280;16267;48.194;11.546;2023-02-18T01:51:57;96775.44;;;11.42;79.04
29239;BME280;16267;48.194;11.546;2023-02-18T01:54:36;96775.03;;;11.51;78.11
29239;BME280;16267;48.194;11.546;2023-02-18T01:57:31;96785.78;;;11.51;78.32
29239;BME280;16267;48.194;11.546;2023-02-18T02:00:16;96778.09;;;11.46;78.82
29239;BME280;16267;48.194;11.546;2023-02-18T02:02:49;96786.94;;;11.46;78.66
29239;BME280;16267;48.194;11.546;2023-02-18T02:05:16;96782.72;;;11.49;78.23
29239;BME280;16267;48.194;11.546;2023-02-18T02:07:44;96779.66;;;11.50;77.80
29239;BME280;16267;48.194;11.546;2023-02-18T02:10:13;96781.94;;;11.41;79.20
29239;BME280;16267;48.194;11.546;2023-02-18T02:13:05;96779.66;;;11.32;79.76
29239;BME280;16267;48.194;11.546;2023-02-18T02:15:55;96770.81;;;11.35;79.94
29239;BME280;16267;48.194;11.546;2023-02-18T02:18:50;96767.34;;;11.38;78.89
29239;BME280;16267;48.194;11.546;2023-02-18T02:21:57;96758.16;;;11.29;80.65
29239;BME280;16267;48.194;11.546;2023-02-18T02:28:47;96748.97;;;11.23;80.65
29239;BME280;16267;48.194;11.546;2023-02-18T02:31:51;96757.00;;;11.26;80.74
29239;BME280;16267;48.194;11.546;2023-02-18T02:45:57;96760.09;;;10.96;83.98
29239;BME280;16267;48.194;11.546;2023-02-18T02:51:28;96750.09;;;11.07;83.49
29239;BME280;16267;48.194;11.546;2023-02-18T02:54:11;96740.13;;;11.08;83.64
29239;BME280;16267;48.194;11.546;2023-02-18T02:56:38;96741.25;;;11.14;83.25
29239;BME280;16267;48.194;11.546;2023-02-18T02:59:08;96743.22;;;11.17;83.10
29239;BME280;16267;48.194;11.546;2023-02-18T03:24:28;96734.72;;;11.33;83.48
29239;BME280;16267;48.194;11.546;2023-02-18T03:27:01;96744.72;;;11.32;83.63
29239;BME280;16267;48.194;11.546;2023-02-18T03:29:29;96738.97;;;11.12;85.16
29239;BME280;16267;48.194;11.546;2023-02-18T03:32:02;96737.81;;;11.24;84.41
29239;BME280;16267;48.194;11.546;2023-02-18T03:34:32;96739.00;;;11.20;84.47
29239;BME280;16267;48.194;11.546;2023-02-18T03:37:00;96731.31;;;11.18;84.97
29239;BME280;16267;48.194;11.546;2023-02-18T03:39:29;96732.44;;;11.28;84.12
29239;BME280;16267;48.194;11.546;2023-02-18T03:41:57;96731.69;;;11.20;84.17
29239;BME280;16267;48.194;11.546;2023-02-18T03:44:24;96736.66;;;11.22;84.58
29239;BME280;16267;48.194;11.546;2023-02-18T03:46:50;96738.19;;;11.30;83.91
29239;BME280;16267;48.194;11.546;2023-02-18T03:49:16;96738.19;;;11.30;83.73
29239;BME280;16267;48.194;11.546;2023-02-18T03:51:42;96726.28;;;11.27;83.69
29239;BME280;16267;48.194;11.546;2023-02-18T03:54:09;96727.84;;;11.21;83.73
29239;BME280;16267;48.194;11.546;2023-02-18T03:56:36;96721.31;;;11.19;84.39
29239;BME280;16267;48.194;11.546;2023-02-18T03:59:02;96732.84;;;11.23;83.92
29239;BME280;16267;48.194;11.546;2023-02-18T04:01:29;96738.19;;;11.26;83.85
29239;BME280;16267;48.194;11.546;2023-02-18T04:03:55;96730.91;;;11.05;85.33
29239;BME280;16267;48.194;11.546;2023-02-18T04:06:24;96716.34;;;11.17;84.40
29239;BME280;16267;48.194;11.546;2023-02-18T04:08:50;96738.59;;;11.14;84.21
29239;BME280;16267;48.194;11.546;2023-02-18T04:11:16;96734.38;;;10.99;85.43
29239;BME280;16267;48.194;11.546;2023-02-18T04:13:42;96733.22;;;11.10;84.38
29239;BME280;16267;48.194;11.546;2023-02-18T04:16:07;96729.38;;;11.15;83.88
29239;BME280;16267;48.194;11.546;2023-02-18T04:18:33;96729.00;;;11.13;83.96
29239;BME280;16267;48.194;11.546;2023-02-18T04:20:59;96743.19;;;11.13;84.06
29239;BME280;16267;48.194;11.546;2023-02-18T04:23:25;96728.63;;;11.07;84.59
29239;BME280;16267;48.194;11.546;2023-02-18T04:25:51;96725.56;;;11.02;85.07
29239;BME280;16267;48.194;11.546;2023-02-18T04:28:17;96728.25;;;11.09;84.86
29239;BME280;16267;48.194;11.546;2023-02-18T04:30:44;96727.47;;;10.94;85.17
29239;BME280;16267;48.194;11.546;2023-02-18T04:33:11;96738.97;;;11.05;84.71
29239;BME280;16267;48.194;11.546;2023-02-18T04:35:37;96746.66;;;10.96;85.74
29239;BME280;16267;48.194;11.546;2023-02-18T04:38:06;96736.28;;;11.02;85.08
29239;BME280;16267;48.194;11.546;2023-02-18T04:40:33;96735.91;;;10.96;85.49
29239;BME280;16267;48.194;11.546;2023-02-18T04:42:59;96731.69;;;10.91;86.21
29239;BME280;16267;48.194;11.546;2023-02-18T04:45:26;96734.00;;;10.97;85.89
29239;BME280;16267;48.194;11.546;2023-02-18T04:47:53;96738.59;;;11.00;85.19
29239;BME280;16267;48.194;11.546;2023-02-18T04:50:19;96737.44;;;10.93;85.39
29239;BME280;16267;48.194;11.546;2023-02-18T04:52:45;96735.13;;;10.99;85.33
29239;BME280;16267;48.194;11.546;2023-02-18T04:55:11;96753.19;;;10.99;85.01
29239;BME280;16267;48.194;11.546;2023-02-18T04:57:37;96744.34;;;10.91;85.34
29239;BME280;16267;48.194;11.546;2023-02-18T05:00:05;96754.34;;;10.87;85.95
29239;BME280;16267;48.194;11.546;2023-02-18T05:02:32;96751.66;;;10.90;85.70
29239;BME280;16267;48.194;11.546;2023-02-18T05:04:58;96746.25;;;10.94;85.07
29239;BME280;16267;48.194;11.546;2023-02-18T05:07:24;96740.13;;;10.83;86.18
29239;BME280;16267;48.194;11.546;2023-02-18T05:09:50;96734.75;;;10.93;85.11
29239;BME280;16267;48.194;11.546;2023-02-18T05:12:15;96733.59;;;10.94;84.61
29239;BME280;16267;48.194;11.546;2023-02-18T05:14:41;96724.03;;;10.86;85.11
29239;BME280;16267;48.194;11.546;2023-02-18T05:17:07;96737.06;;;10.91;85.37
29239;BME280;16267;48.194;11.546;2023-02-18T05:19:33;96735.91;;;10.82;86.01
29239;BME280;16267;48.194;11.546;2023-02-18T05:21:58;96733.97;;;10.86;85.57
29239;BME280;16267;48.194;11.546;2023-02-18T05:24:24;96729.00;;;10.84;85.65
29239;BME280;16267;48.194;11.546;2023-02-18T05:26:50;96727.06;;;10.88;84.86
29239;BME280;16267;48.194;11.546;2023-02-18T05:29:16;96720.16;;;10.80;85.55
29239;BME280;16267;48.194;11.546;2023-02-18T05:31:41;96715.56;;;10.74;85.89
29239;BME280;16267;48.194;11.546;2023-02-18T05:34:07;96721.72;;;10.81;85.66
29239;BME280;16267;48.194;11.546;2023-02-18T05:36:33;96719.81;;;10.82;85.45
29239;BME280;16267;48.194;11.546;2023-02-18T05:38:59;96720.56;;;10.86;85.04
29239;BME280;16267;48.194;11.546;2023-02-18T05:41:24;96722.09;;;10.80;85.43
29239;BME280;16267;48.194;11.546;2023-02-18T05:43:50;96713.28;;;10.79;85.55
29239;BME280;16267;48.194;11.546;2023-02-18T05:46:34;96716.72;;;10.80;84.88
29239;BME280;16267;48.194;11.546;2023-02-18T05:49:00;96718.63;;;10.83;84.33
29239;BME280;16267;48.194;11.546;2023-02-18T05:51:26;96722.50;;;10.78;84.77
29239;BME280;16267;48.194;11.546;2023-02-18T05:53:52;96725.53;;;10.62;85.53
29239;BME280;16267;48.194;11.546;2023-02-18T05:56:18;96719.78;;;10.75;84.98
29239;BME280;16267;48.194;11.546;2023-02-18T05:58:44;96718.63;;;10.65;85.18
29239;BME280;16267;48.194;11.546;2023-02-18T06:01:09;96717.09;;;10.53;85.57
29239;BME280;16267;48.194;11.546;2023-02-18T06:03:35;96717.09;;;10.64;84.90
29239;BME280;16267;48.194;11.546;2023-02-18T06:06:01;96716.72;;;10.69;84.67
29239;BME280;16267;48.194;11.546;2023-02-18T06:08:27;96720.16;;;10.62;85.07
29239;BME280;16267;48.194;11.546;2023-02-18T06:10:52;96720.16;;;10.59;84.90
29239;BME280;16267;48.194;11.546;2023-02-18T06:13:19;96717.47;;;10.62;85.29
29239;BME280;16267;48.194;11.546;2023-02-18T06:15:45;96724.00;;;10.54;85.11
29239;BME280;16267;48.194;11.546;2023-02-18T06:18:11;96733.19;;;10.64;84.98
29239;BME280;16267;48.194;11.546;2023-02-18T06:20:38;96737.81;;;10.67;84.84
29239;BME280;16267;48.194;11.546;2023-02-18T06:23:05;96740.50;;;10.70;84.14
29239;BME280;16267;48.194;11.546;2023-02-18T06:25:31;96744.31;;;10.62;84.72
29239;BME280;16267;48.194;11.546;2023-02-18T06:27:56;96742.78;;;10.72;84.10
29239;BME280;16267;48.194;11.546;2023-02-18T06:30:22;96736.66;;;10.75;83.98
29239;BME280;16267;48.194;11.546;2023-02-18T06:32:48;96742.81;;;10.79;83.25
29239;BME280;16267;48.194;11.546;2023-02-18T06:35:13;96735.13;;;10.78;83.55
29239;BME280;16267;48.194;11.546;2023-02-18T06:37:39;96740.88;;;10.80;83.45
29239;BME280;16267;48.194;11.546;2023-02-18T06:40:06;96742.41;;;10.77;83.03
29239;BME280;16267;48.194;11.546;2023-02-18T06:42:32;96753.16;;;10.81;82.87
29239;BME280;16267;48.194;11.546;2023-02-18T06:44:57;96745.47;;;10.65;83.24
29239;BME280;16267;48.194;11.546;2023-02-18T06:47:23;96742.78;;;10.68;82.56
29239;BME280;16267;48.194;11.546;2023-02-18T06:49:49;96738.22;;;10.73;82.83
29239;BME280;16267;48.194;11.546;2023-02-18T06:52:15;96737.47;;;10.86;82.25
29239;BME280;16267;48.194;11.546;2023-02-18T06:54:41;96727.47;;;10.83;81.68
29239;BME280;16267;48.194;11.546;2023-02-18T06:57:06;96731.31;;;10.82;81.90
29239;BME280;16267;48.194;11.546;2023-02-18T06:59:32;96730.13;;;10.83;81.65
29239;BME280;16267;48.194;11.546;2023-02-18T07:01:58;96723.63;;;10.77;81.05
29239;BME280;16267;48.194;11.546;2023-02-18T07:04:24;96724.00;;;10.93;80.88
29239;BME280;16267;48.194;11.546;2023-02-18T07:06:50;96724.78;;;10.87;80.55
29239;BME280;16267;48.194;11.546;2023-02-18T07:09:15;96728.25;;;10.84;80.91
29239;BME280;16267;48.194;11.546;2023-02-18T07:11:41;96726.31;;;10.95;80.30
29239;BME280;16267;48.194;11.546;2023-02-18T07:14:10;96714.78;;;10.94;80.07
29239;BME280;16267;48.194;11.546;2023-02-18T07:16:36;96712.88;;;10.99;79.90
29239;BME280;16267;48.194;11.546;2023-02-18T07:19:02;96720.16;;;11.05;79.70
29239;BME280;16267;48.194;11.546;2023-02-18T07:21:28;96732.47;;;11.06;79.41
29239;BME280;16267;48.194;11.546;2023-02-18T07:23:54;96719.03;;;11.10;79.51
29239;BME280;16267;48.194;11.546;2023-02-18T07:26:19;96719.78;;;11.14;78.96
29239;BME280;16267;48.194;11.546;2023-02-18T07:28:45;96747.78;;;11.16;79.14
29239;BME280;16267;48.194;11.546;2023-02-18T07:31:11;96732.47;;;11.17;78.98
29239;BME280;16267;48.194;11.546;2023-02-18T07:33:36;96725.16;;;11.14;78.76
29239;BME280;16267;48.194;11.546;2023-02-18T07:36:03;96727.84;;;11.18;78.90
29239;BME280;16267;48.194;11.546;2023-02-18T07:38:29;96720.94;;;11.13;78.49
29239;BME280;16267;48.194;11.546;2023-02-18T07:40:56;96721.31;;;11.22;78.75
29239;BME280;16267;48.194;11.546;2023-02-18T07:43:23;96711.72;;;11.10;78.55
29239;BME280;16267;48.194;11.546;2023-02-18T07:45:49;96711.72;;;11.18;78.74
29239;BME280;16267;48.194;11.546;2023-02-18T07:48:15;96717.88;;;11.18;78.51
29239;BME280;16267;48.194;11.546;2023-02-18T07:50:43;96714.41;;;11.28;78.58
29239;BME280;16267;48.194;11.546;2023-02-18T07:53:11;96713.22;;;11.33;78.06
29239;BME280;16267;48.194;11.546;2023-02-18T07:55:38;96712.47;;;11.32;77.56
29239;BME280;16267;48.194;11.546;2023-02-18T07:58:19;96716.31;;;11.35;77.67
29239;BME280;16267;48.194;11.546;2023-02-18T08:00:47;96720.13;;;11.30;77.16
29239;BME280;16267;48.194;11.546;2023-02-18T08:03:15;96703.63;;;11.43;77.14
29239;BME280;16267;48.194;11.546;2023-02-18T08:05:42;96706.28;;;11.50;76.46
29239;BME280;16267;48.194;11.546;2023-02-18T08:08:17;96687.44;;;11.60;76.23
29239;BME280;16267;48.194;11.546;2023-02-18T08:10:45;96687.78;;;11.66;75.23
29239;BME280;16267;48.194;11.546;2023-02-18T08:13:12;96685.13;;;11.63;74.85
29239;BME280;16267;48.194;11.546;2023-02-18T08:15:38;96682.00;;;11.78;74.96
29239;BME280;16267;48.194;11.546;2023-02-18T08:18:06;96679.31;;;11.89;74.37
29239;BME280;16267;48.194;11.546;2023-02-18T08:20:36;96681.56;;;11.94;74.04
29239;BME280;16267;48.194;11.546;2023-02-18T08:23:04;96686.84;;;12.19;73.09
29239;BME280;16267;48.194;11.546;2023-02-18T08:25:31;96674.94;;;12.13;73.12
29239;BME280;16267;48.194;11.546;2023-02-18T08:27:57;96672.25;;;12.13;72.78
29239;BME280;16267;48.194;11.546;2023-02-18T08:30:24;96673.34;;;12.26;73.32
29239;BME280;16267;48.194;11.546;2023-02-18T08:32:51;96671.41;;;12.27;71.61
29239;BME280;16267;48.194;11.546;2023-02-18T08:35:18;96667.59;;;12.21;71.75
29239;BME280;16267;48.194;11.546;2023-02-18T08:37:44;96663.63;;;12.40;71.22
29239;BME280;16267;48.194;11.546;2023-02-18T08:40:12;96662.00;;;12.53;70.03
29239;BME280;16267;48.194;11.546;2023-02-18T08:42:38;96648.03;;;12.69;69.52
29239;BME280;16267;48.194;11.546;2023-02-18T08:45:05;96642.75;;;12.58;68.90
29239;BME280;16267;48.194;11.546;2023-02-18T08:47:32;96646.09;;;12.73;68.94
29239;BME280;16267;48.194;11.546;2023-02-18T08:49:58;96651.59;;;12.55;68.58
29239;BME280;16267;48.194;11.546;2023-02-18T08:52:24;96637.97;;;12.77;68.17
29239;BME280;16267;48.194;11.546;2023-02-18T08:54:50;96629.84;;;12.80;68.28
29239;BME280;16267;48.194;11.546;2023-02-18T08:57:16;96645.66;;;12.78;67.79
29239;BME280;16267;48.194;11.546;2023-02-18T08:59:42;96639.47;;;12.81;67.37
29239;BME280;16267;48.194;11.546;2023-02-18T09:02:13;96647.47;;;12.92;67.65
29239;BME280;16267;48.194;11.546;2023-02-18T09:04:39;96640.28;;;12.75;68.09
29239;BME280;16267;48.194;11.546;2023-02-18T09:07:05;96650.66;;;12.76;68.53
29239;BME280;16267;48.194;11.546;2023-02-18T09:09:31;96649.91;;;12.76;68.12
29239;BME280;16267;48.194;11.546;2023-02-18T09:11:57;96647.56;;;12.81;68.04
29239;BME280;16267;48.194;11.546;2023-02-18T09:14:23;96649.31;;;12.54;68.81
29239;BME280;16267;48.194;11.546;2023-02-18T09:16:49;96641.19;;;12.57;69.50
29239;BME280;16267;48.194;11.546;2023-02-18T09:19:16;96635.00;;;12.64;69.10
29239;BME280;16267;48.194;11.546;2023-02-18T09:21:42;96637.50;;;12.85;68.40
29239;BME280;16267;48.194;11.546;2023-02-18T09:24:08;96634.31;;;12.98;67.65
29239;BME280;16267;48.194;11.546;2023-02-18T09:26:34;96644.84;;;13.23;66.70
29239;BME280;16267;48.194;11.546;2023-02-18T09:29:00;96649.84;;;13.24;66.33
29239;BME280;16267;48.194;11.546;2023-02-18T09:31:27;96661.50;;;13.14;66.29
29239;BME280;16267;48.194;11.546;2023-02-18T09:33:57;96642.19;;;13.19;66.37
29239;BME280;16267;48.194;11.546;2023-02-18T09:36:23;96608.56;;;13.34;65.70
29239;BME280;16267;48.194;11.546;2023-02-18T09:38:50;96642.03;;;13.37;65.27
29239;BME280;16267;48.194;11.546;2023-02-18T09:41:44;96638.41;;;13.13;65.54
29239;BME280;16267;48.194;11.546;2023-02-18T09:44:49;96635.56;;;13.27;65.54
29239;BME280;16267;48.194;11.546;2023-02-18T09:47:35;96638.59;;;13.33;64.58
29239;BME280;16267;48.194;11.546;2023-02-18T09:52:43;96638.47;;;13.47;64.73
29239;BME280;16267;48.194;11.546;2023-02-18T09:55:26;96619.47;;;13.58;64.43
29239;BME280;16267;48.194;11.546;2023-02-18T09:57:56;96643.00;;;13.84;62.83
29239;BME280;16267;48.194;11.546;2023-02-18T10:00:41;96631.31;;;13.95;62.43
29239;BME280;16267;48.194;11.546;2023-02-18T10:03:21;96613.47;;;13.74;62.68
29239;BME280;16267;48.194;11.546;2023-02-18T10:06:26;96618.78;;;13.81;63.19
29239;BME280;16267;48.194;11.546;2023-02-18T10:08:54;96612.25;;;13.78;62.91
29239;BME280;16267;48.194;11.546;2023-02-18T10:11:31;96605.69;;;13.79;62.61
29239;BME280;16267;48.194;11.546;2023-02-18T10:13:58;96603.44;;;13.74;62.77
29239;BME280;16267;48.194;11.546;2023-02-18T10:16:26;96607.03;;;13.95;62.51
29239;BME280;16267;48.194;11.546;2023-02-18T10:18:58;96597.09;;;14.15;62.63
29239;BME280;16267;48.194;11.546;2023-02-18T10:21:29;96594.47;;;14.12;62.03
29239;BME280;16267;48.194;11.546;2023-02-18T10:24:07;96593.69;;;14.11;61.59
29239;BME280;16267;48.194;11.546;2023-02-18T10:26:38;96588.31;;;14.11;62.20
29239;BME280;16267;48.194;11.546;2023-02-18T10:29:15;96579.63;;;14.23;62.35
29239;BME280;16267;48.194;11.546;2023-02-18T10:31:49;96575.91;;;14.14;61.57
29239;BME280;16267;48.194;11.546;2023-02-18T10:43:32;96552.09;;;14.32;61.49
29239;BME280;16267;48.194;11.546;2023-02-18T10:46:48;96543.34;;;14.48;61.22
29239;BME280;16267;48.194;11.546;2023-02-18T10:52:23;96537.44;;;14.33;61.46
29239;BME280;16267;48.194;11.546;2023-02-18T10:55:12;96525.22;;;14.72;61.79
29239;BME280;16267;48.194;11.546;2023-02-18T10:57:53;96518.44;;;14.84;60.76
29239;BME280;16267;48.194;11.546;2023-02-18T11:00:23;96515.81;;;15.00;60.16
29239;BME280;16267;48.194;11.546;2023-02-18T11:03:14;96503.97;;;14.94;59.50
29239;BME280;16267;48.194;11.546;2023-02-18T11:05:41;96504.03;;;15.30;60.08
29239;BME280;16267;48.194;11.546;2023-02-18T11:08:13;96488.41;;;15.18;57.51
29239;BME280;16267;48.194;11.546;2023-02-18T11:10:44;96494.69;;;15.68;56.86
29239;BME280;16267;48.194;11.546;2023-02-18T11:13:15;96476.75;;;15.94;56.32
29239;BME280;16267;48.194;11.546;2023-02-18T11:16:06;96474.91;;;15.54;55.71
29239;BME280;16267;48.194;11.546;2023-02-18T11:18:44;96484.59;;;15.72;56.05
29239;BME280;16267;48.194;11.546;2023-02-18T11:21:30;96472.50;;;15.76;55.81
29239;BME280;16267;48.194;11.546;2023-02-18T11:24:08;96467.69;;;15.84;55.77
29239;BME280;16267;48.194;11.546;2023-02-18T11:26:35;96480.81;;;15.86;54.02
29239;BME280;16267;48.194;11.546;2023-02-18T11:29:21;96468.94;;;16.12;53.81
29239;BME280;16267;48.194;11.546;2023-02-18T11:31:51;96476.16;;;16.02;52.63
29239;BME280;16267;48.194;11.546;2023-02-18T11:34:25;96464.47;;;16.05;52.76
29239;BME280;16267;48.194;11.546;2023-02-18T11:36:52;96461.03;;;16.34;52.41
29239;BME280;16267;48.194;11.546;2023-02-18T11:39:28;96452.53;;;16.48;52.36
29239;BME280;16267;48.194;11.546;2023-02-18T11:42:03;96460.69;;;16.32;51.88
29239;BME280;16267;48.194;11.546;2023-02-18T11:44:32;96450.69;;;16.16;51.76
29239;BME280;16267;48.194;11.546;2023-02-18T11:49:32;96463.47;;;15.83;53.35
29239;BME280;16267;48.194;11.546;2023-02-18T11:52:26;96472.69;;;15.86;53.03
29239;BME280;16267;48.194;11.546;2023-02-18T11:55:00;96459.63;;;15.64;53.01
29239;BME280;16267;48.194;11.546;2023-02-18T11:57:27;96443.78;;;15.62;53.75
29239;BME280;16267;48.194;11.546;2023-02-18T11:59:54;96448.31;;;15.69;53.61
29239;BME280;16267;48.194;11.546;2023-02-18T12:05:17;96435.41;;;15.57;53.31
29239;BME280;16267;48.194;11.546;2023-02-18T12:13:21;96422.69;;;15.57;53.85
29239;BME280;16267;48.194;11.546;2023-02-18T12:19:13;96426.31;;;15.14;53.93
29239;BME280;16267;48.194;11.546;2023-02-18T12:22:26;96407.41;;;15.31;54.08
29239;BME280;16267;48.194;11.546;2023-02-18T12:25:19;96407.38;;;15.14;54.29
29239;BME280;16267;48.194;11.546;2023-02-18T12:33:57;96397.63;;;15.01;55.47
29239;BME280;16267;48.194;11.546;2023-02-18T12:36:44;96385.88;;;14.91;55.11
29239;BME280;16267;48.194;11.546;2023-02-18T12:45:12;96382.56;;;14.83;56.49
29239;BME280;16267;48.194;11.546;2023-02-18T12:51:05;96391.03;;;15.02;55.82
29239;BME280;16267;48.194;11.546;2023-02-18T13:07:53;96392.34;;;14.77;54.76
29239;BME280;16267;48.194;11.546;2023-02-18T13:13:21;96383.31;;;14.84;55.22
29239;BME280;16267;48.194;11.546;2023-02-18T13:15:59;96380.31;;;14.98;55.41
29239;BME280;16267;48.194;11.546;2023-02-18T13:19:06;96376.00;;;15.01;54.95
29239;BME280;16267;48.194;11.546;2023-02-18T13:21:28;96366.31;;;15.03;54.62
29239;BME280;16267;48.194;11.546;2023-02-18T13:24:06;96372.59;;;15.16;54.84
29239;BME280;16267;48.194;11.546;2023-02-18T13:26:34;96378.41;;;15.15;54.14
29239;BME280;16267;48.194;11.546;2023-02-18T13:32:13;96361.91;;;15.09;54.19
29239;BME280;16267;48.194;11.546;2023-02-18T13:35:03;96363.88;;;15.09;53.41
29239;BME280;16267;48.194;11.546;2023-02-18T13:37:51;96355.75;;;15.09;54.59
29239;BME280;16267;48.194;11.546;2023-02-18T13:40:25;96355.25;;;15.14;54.77
29239;BME280;16267;48.194;11.546;2023-02-18T13:43:15;96348.22;;;15.00;54.05
29239;BME280;16267;48.194;11.546;2023-02-18T13:45:40;96356.78;;;15.15;54.58
29239;BME280;16267;48.194;11.546;2023-02-18T13:48:26;96360.16;;;15.03;54.65
29239;BME280;16267;48.194;11.546;2023-02-18T13:57:18;96372.13;;;14.65;53.94
29239;BME280;16267;48.194;11.546;2023-02-18T14:00:18;96356.66;;;14.66;53.78
29239;BME280;16267;48.194;11.546;2023-02-18T14:05:58;96343.31;;;14.59;54.41
29239;BME280;16267;48.194;11.546;2023-02-18T14:08:38;96358.34;;;14.60;53.98
29239;BME280;16267;48.194;11.546;2023-02-18T14:16:25;96347.31;;;14.50;54.25
29239;BME280;16267;48.194;11.546;2023-02-18T14:18:59;96344.25;;;14.48;53.79
29239;BME280;16267;48.194;11.546;2023-02-18T14:21:43;96337.56;;;14.37;54.35
29239;BME280;16267;48.194;11.546;2023-02-18T14:24:10;96335.25;;;14.35;54.38
29239;BME280;16267;48.194;11.546;2023-02-18T14:26:47;96349.78;;;14.21;54.38
29239;BME280;16267;48.194;11.546;2023-02-18T14:29:25;96347.31;;;14.31;54.84
29239;BME280;16267;48.194;11.546;2023-02-18T14:32:08;96354.91;;;14.16;54.74
29239;BME280;16267;48.194;11.546;2023-02-18T14:40:36;96350.63;;;13.75;56.31
29239;BME280;16267;48.194;11.546;2023-02-18T14:43:24;96346.97;;;13.85;56.28
29239;BME280;16267;48.194;11.546;2023-02-18T14:51:53;96346.59;;;14.06;56.19
29239;BME280;16267;48.194;11.546;2023-02-18T14:54:24;96345.50;;;14.04;56.13
29239;BME280;16267;48.194;11.546;2023-02-18T14:57:05;96347.34;;;14.07;55.69
29239;BME280;16267;48.194;11.546;2023-02-18T14:59:41;96333.38;;;14.12;55.27
29239;BME280;16267;48.194;11.546;2023-02-18T15:02:23;96337.41;;;14.04;55.98
29239;BME280;16267;48.194;11.546;2023-02-18T15:04:52;96338.56;;;14.03;55.83
29239;BME280;16267;48.194;11.546;2023-02-18T15:07:20;96344.09;;;13.96;55.81
29239;BME280;16267;48.194;11.546;2023-02-18T15:10:04;96358.91;;;14.07;55.87
29239;BME280;16267;48.194;11.546;2023-02-18T15:12:40;96350.53;;;14.02;55.72
29239;BME280;16267;48.194;11.546;2023-02-18T15:15:08;96353.59;;;14.04;56.15
29239;BME280;16267;48.194;11.546;2023-02-18T15:17:46;96367.72;;;13.88;55.64
29239;BME280;16267;48.194;11.546;2023-02-18T15:20:16;96354.97;;;13.92;55.90
29239;BME280;16267;48.194;11.546;2023-02-18T15:22:43;96348.94;;;14.04;55.84
29239;BME280;16267;48.194;11.546;2023-02-18T15:25:13;96345.88;;;13.82;55.52
29239;BME280;16267;48.194;11.546;2023-02-18T15:27:42;96343.69;;;13.97;56.16
29239;BME280;16267;48.194;11.546;2023-02-18T15:30:25;96357.38;;;13.87;56.04
29239;BME280;16267;48.194;11.546;2023-02-18T15:32:55;96361.88;;;13.93;55.77
29239;BME280;16267;48.194;11.546;2023-02-18T15:35:26;96348.34;;;13.97;55.80
29239;BME280;16267;48.194;11.546;2023-02-18T15:37:56;96361.00;;;13.76;55.98
29239;BME280;16267;48.194;11.546;2023-02-18T15:40:29;96341.53;;;13.65;56.48
29239;BME280;16267;48.194;11.546;2023-02-18T15:42:57;96352.34;;;13.65;56.68